Time;durP1;ratioP1;P1;durP2;ratioP2;P2;SDS_P1;SDS_P2;PMS_P1;PMS_P2;Temp;Humidity;BMP_temperature;BMP_pressure;BME280_temperature;BME280_humidity;BME280_pressure;Samples;Min_cycle;Max_cycle;Signal;HPM_P1;HPM_P2
2023/05/29 00:00:53;;;;;;;;;;;;;;;16.55;58.77;100403.75;5072349;28;1031;-55
2023/05/29 00:03:18;;;;;;;;;;;;;;;16.31;58.16;100411.81;5078811;28;1122;-55
2023/05/29 00:05:44;;;;;;;;;;;;;;;16.21;57.73;100406.38;5079437;28;1147;-56
2023/05/29 00:08:09;;;;;;;;;;;;;;;16.12;57.49;100403.38;5079046;28;1968;-56
2023/05/29 00:10:37;;;;;;;;;;;;;;;16.04;57.18;100407.50;5078321;28;1086;-56
2023/05/29 00:13:02;;;;;;;;;;;;;;;16.78;59.10;100398.69;5078822;28;1166;-56
2023/05/29 00:15:28;;;;;;;;;;;;;;;17.35;58.70;100410.13;5078669;28;1152;-55
2023/05/29 00:17:54;;;;;;;;;;;;;;;16.70;59.13;100407.50;5078867;28;1149;-56
2023/05/29 00:20:19;;;;;;;;;;;;;;;16.47;58.33;100404.34;5078795;28;1166;-56
2023/05/29 00:22:45;;;;;;;;;;;;;;;16.30;58.06;100406.59;5084776;28;927;-55
2023/05/29 00:25:11;;;;;;;;;;;;;;;16.17;57.60;100397.91;5078391;28;1070;-55
2023/05/29 00:27:36;;;;;;;;;;;;;;;16.02;57.57;100404.25;5078426;28;1890;-56
2023/05/29 00:30:03;;;;;;;;;;;;;;;15.97;57.18;100396.03;5060762;28;1182;-56
2023/05/29 00:32:28;;;;;;;;;;;;;;;16.17;58.19;100403.38;5077772;28;1079;-56
2023/05/29 00:34:55;;;;;;;;;;;;;;;17.38;58.92;100406.78;5050318;28;1126;-55
2023/05/29 00:37:24;;;;;;;;;;;;;;;16.97;59.29;100409.03;5077571;28;1118;-56
2023/05/29 00:39:50;;;;;;;;;;;;;;;16.55;58.77;100402.91;5078344;28;1055;-56
2023/05/29 00:42:15;;;;;;;;;;;;;;;16.40;58.29;100410.13;5059609;28;1075;-56
2023/05/29 00:44:41;;;;;;;;;;;;;;;16.29;57.84;100400.31;5078493;28;1034;-55
2023/05/29 00:47:06;;;;;;;;;;;;;;;16.17;57.49;100399.81;5087275;28;1902;-55
2023/05/29 00:49:32;;;;;;;;;;;;;;;16.05;57.57;100403.69;5077999;28;1023;-55
2023/05/29 00:51:57;;;;;;;;;;;;;;;15.96;57.33;100402.59;5060128;28;1154;-55
2023/05/29 00:54:24;;;;;;;;;;;;;;;15.89;57.24;100396.59;5077985;28;1229;-55
2023/05/29 00:56:50;;;;;;;;;;;;;;;15.84;56.97;100396.63;5078057;28;1063;-55
2023/05/29 00:59:15;;;;;;;;;;;;;;;15.87;57.30;100407.03;5069348;28;892;-56
2023/05/29 01:01:41;;;;;;;;;;;;;;;17.05;58.92;100408.41;5063337;28;1150;-56
2023/05/29 01:04:06;;;;;;;;;;;;;;;17.13;58.80;100398.78;5078102;28;1209;-55
2023/05/29 01:06:35;;;;;;;;;;;;;;;16.53;59.27;100392.22;5078234;28;1070;-55
2023/05/29 01:09:00;;;;;;;;;;;;;;;16.30;58.46;100396.47;5077509;28;1909;-55
2023/05/29 01:11:39;;;;;;;;;;;;;;;16.18;58.13;100390.47;5082826;28;1143;-57
2023/05/29 01:14:06;;;;;;;;;;;;;;;16.10;57.50;100382.81;5053778;28;1071;-56
2023/05/29 01:16:35;;;;;;;;;;;;;;;16.08;58.31;100386.66;5059931;28;1197;-56
2023/05/29 01:19:05;;;;;;;;;;;;;;;17.38;58.96;100390.31;5059804;28;1118;-55
2023/05/29 01:21:40;;;;;;;;;;;;;;;16.88;58.95;100387.66;5043033;28;1162;-55
2023/05/29 01:24:11;;;;;;;;;;;;;;;16.56;58.64;100382.63;5073552;28;1103;-56
2023/05/29 01:26:56;;;;;;;;;;;;;;;16.36;57.99;100387.09;5059521;28;1153;-56
2023/05/29 01:29:23;;;;;;;;;;;;;;;16.23;57.65;100382.25;5059443;28;1906;-56
2023/05/29 01:31:48;;;;;;;;;;;;;;;16.08;57.38;100388.59;5059061;28;1355;-57
2023/05/29 01:34:15;;;;;;;;;;;;;;;16.03;57.14;100383.13;5064558;28;1103;-55
2023/05/29 01:36:42;;;;;;;;;;;;;;;16.24;58.53;100381.97;5051611;28;1204;-55
2023/05/29 01:39:09;;;;;;;;;;;;;;;17.50;58.94;100375.34;5064416;28;1059;-55
2023/05/29 01:41:34;;;;;;;;;;;;;;;17.04;59.03;100373.81;5077287;28;1178;-54
2023/05/29 01:44:01;;;;;;;;;;;;;;;16.68;58.66;100374.84;5077017;28;1023;-55
2023/05/29 01:46:26;;;;;;;;;;;;;;;16.41;58.42;100367.88;5063008;28;1239;-54
2023/05/29 01:48:52;;;;;;;;;;;;;;;16.30;58.03;100374.53;5064880;28;1909;-55
2023/05/29 01:51:18;;;;;;;;;;;;;;;16.20;57.45;100371.81;5076460;28;1133;-54
2023/05/29 01:53:45;;;;;;;;;;;;;;;16.10;57.35;100367.19;5058300;28;1066;-54
2023/05/29 01:56:11;;;;;;;;;;;;;;;16.03;57.32;100370.25;5058869;28;1361;-55
2023/05/29 01:58:37;;;;;;;;;;;;;;;15.90;57.09;100365.34;5065394;28;1309;-55
2023/05/29 02:01:06;;;;;;;;;;;;;;;15.90;57.14;100362.59;5064444;28;1098;-55
2023/05/29 02:03:31;;;;;;;;;;;;;;;16.80;59.16;100376.44;5077079;28;1225;-55
2023/05/29 02:05:57;;;;;;;;;;;;;;;17.34;59.02;100370.00;5077970;28;1165;-55
2023/05/29 02:08:23;;;;;;;;;;;;;;;16.60;59.29;100378.19;5088488;28;1910;-54
2023/05/29 02:10:48;;;;;;;;;;;;;;;16.41;58.65;100380.75;5083003;28;1047;-55
2023/05/29 02:13:14;;;;;;;;;;;;;;;16.27;58.04;100377.84;5058858;28;1376;-55
2023/05/29 02:15:40;;;;;;;;;;;;;;;16.15;57.82;100382.81;5076308;28;1177;-55
2023/05/29 02:18:08;;;;;;;;;;;;;;;16.03;57.47;100383.97;5058408;28;1412;-55
2023/05/29 02:20:34;;;;;;;;;;;;;;;15.96;57.47;100388.09;5076628;28;1117;-56
2023/05/29 02:22:59;;;;;;;;;;;;;;;15.94;57.12;100382.88;5084315;28;1050;-55
2023/05/29 02:25:25;;;;;;;;;;;;;;;15.85;57.18;100381.78;5062737;28;1233;-55
2023/05/29 02:27:51;;;;;;;;;;;;;;;16.77;59.01;100381.41;5076453;28;1910;-55
2023/05/29 02:30:16;;;;;;;;;;;;;;;17.48;58.81;100383.88;5076453;28;1142;-56
2023/05/29 02:32:42;;;;;;;;;;;;;;;16.79;58.99;100388.50;5076255;28;1073;-55
2023/05/29 02:35:08;;;;;;;;;;;;;;;16.52;58.71;100384.28;5083764;28;1122;-56
2023/05/29 02:37:35;;;;;;;;;;;;;;;16.34;57.92;100394.81;5057611;28;2100;-56
2023/05/29 02:40:00;;;;;;;;;;;;;;;16.20;57.97;100388.25;5058274;28;1030;-56
2023/05/29 02:42:26;;;;;;;;;;;;;;;16.06;57.75;100388.88;5076388;28;1022;-56
2023/05/29 02:44:51;;;;;;;;;;;;;;;16.00;57.35;100389.16;5058158;28;1097;-56
2023/05/29 02:47:17;;;;;;;;;;;;;;;15.99;57.04;100385.63;5059180;28;1986;-56
2023/05/29 02:49:42;;;;;;;;;;;;;;;16.06;57.87;100396.25;5076024;28;1030;-56
2023/05/29 02:52:08;;;;;;;;;;;;;;;17.24;59.25;100386.59;5075670;28;1248;-56
2023/05/29 02:54:33;;;;;;;;;;;;;;;16.89;59.31;100388.50;5057724;28;1194;-56
2023/05/29 02:56:59;;;;;;;;;;;;;;;16.47;58.98;100398.06;5075993;28;1039;-56
2023/05/29 02:59:24;;;;;;;;;;;;;;;16.30;58.57;100388.25;5066899;28;1463;-57
2023/05/29 03:01:51;;;;;;;;;;;;;;;16.17;58.28;100383.34;5057822;28;1221;-57
2023/05/29 03:04:17;;;;;;;;;;;;;;;16.09;57.49;100387.50;5057896;28;1087;-57
2023/05/29 03:06:43;;;;;;;;;;;;;;;16.02;57.48;100390.53;5078949;28;1062;-57
2023/05/29 03:09:08;;;;;;;;;;;;;;;16.92;59.18;100385.97;5079896;28;1910;-57
2023/05/29 03:11:35;;;;;;;;;;;;;;;17.19;58.96;100389.38;5083048;28;836;-57
2023/05/29 03:14:01;;;;;;;;;;;;;;;16.67;59.11;100391.63;5079730;28;1030;-57
2023/05/29 03:16:29;;;;;;;;;;;;;;;16.41;58.72;100406.28;5066720;28;1087;-62
2023/05/29 03:18:55;;;;;;;;;;;;;;;16.26;58.31;100406.38;5061888;28;1178;-62
2023/05/29 03:21:21;;;;;;;;;;;;;;;16.19;57.80;100403.09;5079831;28;1138;-62
2023/05/29 03:23:47;;;;;;;;;;;;;;;16.06;57.53;100410.81;5062127;28;1150;-60
2023/05/29 03:26:13;;;;;;;;;;;;;;;15.95;57.45;100402.88;5053645;28;1322;-63
2023/05/29 03:28:39;;;;;;;;;;;;;;;15.92;57.21;100407.00;5061388;28;1906;-60
2023/05/29 03:31:08;;;;;;;;;;;;;;;16.21;58.33;100417.34;5049498;28;1381;-63
2023/05/29 03:33:35;;;;;;;;;;;;;;;17.39;58.96;100424.09;5060744;28;1291;-62
2023/05/29 03:36:17;;;;;;;;;;;;;;;16.73;59.20;100406.94;5064947;28;1277;-62
2023/05/29 03:38:43;;;;;;;;;;;;;;;16.47;58.67;100409.03;5061333;28;1170;-62
2023/05/29 03:41:09;;;;;;;;;;;;;;;16.23;58.16;100418.72;5061860;28;1150;-63
2023/05/29 03:43:36;;;;;;;;;;;;;;;16.14;57.79;100419.56;5079369;28;1137;-63
2023/05/29 03:46:01;;;;;;;;;;;;;;;16.10;57.58;100421.22;5061515;28;1173;-61
2023/05/29 03:48:29;;;;;;;;;;;;;;;15.96;57.39;100413.56;5071406;28;1917;-62
2023/05/29 03:50:55;;;;;;;;;;;;;;;15.88;57.00;100414.97;5061167;28;1382;-62
2023/05/29 03:53:27;;;;;;;;;;;;;;;16.97;59.27;100423.59;5061151;28;1236;-63
2023/05/29 03:55:52;;;;;;;;;;;;;;;17.44;58.97;100422.13;5079429;28;1117;-63
2023/05/29 03:58:18;;;;;;;;;;;;;;;16.75;59.39;100422.03;5060657;28;1242;-65
2023/05/29 04:00:44;;;;;;;;;;;;;;;16.51;58.76;100426.53;5064994;28;1401;-64
2023/05/29 04:03:11;;;;;;;;;;;;;;;16.41;58.18;100421.91;5060914;28;1394;-65
2023/05/29 04:05:36;;;;;;;;;;;;;;;16.22;58.16;100419.81;5070672;28;1259;-65
2023/05/29 04:08:04;;;;;;;;;;;;;;;16.11;57.63;100417.38;5062344;28;1988;-61
2023/05/29 04:10:33;;;;;;;;;;;;;;;15.99;57.84;100410.28;5060993;28;1094;-60
2023/05/29 04:12:59;;;;;;;;;;;;;;;15.93;57.47;100410.59;5091140;28;1050;-59
2023/05/29 04:15:25;;;;;;;;;;;;;;;15.92;57.10;100404.25;5058348;28;1374;-63
2023/05/29 04:17:52;;;;;;;;;;;;;;;16.49;59.52;100415.03;5047934;28;1340;-55
2023/05/29 04:20:18;;;;;;;;;;;;;;;17.08;59.41;100416.09;5053290;28;1287;-55
2023/05/29 04:22:43;;;;;;;;;;;;;;;16.45;59.57;100412.03;5041043;28;1210;-56
2023/05/29 04:25:09;;;;;;;;;;;;;;;16.30;58.78;100415.69;5080266;28;971;-56
2023/05/29 04:27:38;;;;;;;;;;;;;;;16.12;58.38;100414.38;5054840;28;1903;-62
2023/05/29 04:30:06;;;;;;;;;;;;;;;16.08;57.95;100411.34;5060489;28;1166;-62
2023/05/29 04:32:36;;;;;;;;;;;;;;;15.96;57.87;100412.75;5060471;28;1214;-63
2023/05/29 04:35:02;;;;;;;;;;;;;;;16.20;58.80;100421.19;5060830;28;1150;-62
2023/05/29 04:37:37;;;;;;;;;;;;;;;17.46;59.24;100424.59;5058708;28;1126;-56
2023/05/29 04:40:08;;;;;;;;;;;;;;;16.82;59.40;100426.41;5060765;28;1171;-59
2023/05/29 04:42:35;;;;;;;;;;;;;;;16.48;59.21;100421.63;5060722;28;1107;-61
2023/05/29 04:45:01;;;;;;;;;;;;;;;16.37;58.43;100420.88;5054190;28;1187;-62
2023/05/29 04:47:27;;;;;;;;;;;;;;;16.19;58.12;100425.03;5059174;28;1914;-60
2023/05/29 04:49:53;;;;;;;;;;;;;;;16.16;57.70;100426.44;5053772;28;1071;-60
2023/05/29 04:52:20;;;;;;;;;;;;;;;16.04;57.55;100423.97;5081064;28;1142;-60
2023/05/29 04:54:46;;;;;;;;;;;;;;;15.91;57.39;100430.06;5070623;28;1212;-64
2023/05/29 04:57:12;;;;;;;;;;;;;;;16.03;58.09;100437.97;5060101;28;1154;-61
2023/05/29 04:59:39;;;;;;;;;;;;;;;17.52;57.84;100445.44;5063255;28;1517;-64
2023/05/29 05:02:05;;;;;;;;;;;;;;;16.74;57.23;100442.34;5081421;28;1164;-64
2023/05/29 05:04:32;;;;;;;;;;;;;;;16.24;55.23;100456.03;5060195;28;1162;-60
2023/05/29 05:06:57;;;;;;;;;;;;;;;16.14;53.31;100450.56;5059927;28;1170;-62
2023/05/29 05:09:23;;;;;;;;;;;;;;;15.94;52.30;100456.91;5059907;28;1962;-65
2023/05/29 05:11:49;;;;;;;;;;;;;;;16.62;54.81;100454.78;5060740;28;1282;-64
2023/05/29 05:14:16;;;;;;;;;;;;;;;16.32;53.21;100451.88;5059690;28;1398;-58
2023/05/29 05:16:42;;;;;;;;;;;;;;;16.22;51.47;100446.44;5077511;28;1103;-58
2023/05/29 05:19:09;;;;;;;;;;;;;;;17.06;54.45;100457.59;5077999;28;1062;-58
2023/05/29 05:21:38;;;;;;;;;;;;;;;16.54;53.84;100454.25;5077598;28;1070;-62
2023/05/29 05:24:04;;;;;;;;;;;;;;;16.31;52.45;100454.91;5057166;28;1443;-63
2023/05/29 05:26:30;;;;;;;;;;;;;;;16.14;51.27;100450.56;5042370;28;1258;-59
2023/05/29 05:28:56;;;;;;;;;;;;;;;17.28;53.64;100456.34;5051109;28;1897;-61
2023/05/29 05:31:23;;;;;;;;;;;;;;;16.56;53.07;100454.81;5059502;28;1315;-64
2023/05/29 05:33:49;;;;;;;;;;;;;;;16.38;51.76;100458.16;5077597;28;1118;-63
2023/05/29 05:36:16;;;;;;;;;;;;;;;16.25;50.71;100454.91;5065117;28;1214;-66
2023/05/29 05:38:42;;;;;;;;;;;;;;;16.73;51.57;100456.38;5060351;28;1212;-62
2023/05/29 05:41:07;;;;;;;;;;;;;;;16.66;52.19;100464.94;5077512;28;1113;-63
2023/05/29 05:43:33;;;;;;;;;;;;;;;16.43;51.66;100469.94;5059277;28;1230;-64
2023/05/29 05:46:12;;;;;;;;;;;;;;;16.39;50.40;100476.28;5072271;28;1265;-62
2023/05/29 05:48:39;;;;;;;;;;;;;;;16.67;51.71;100485.78;5053375;28;1894;-63
2023/05/29 05:51:05;;;;;;;;;;;;;;;16.78;51.97;100489.31;5053010;28;1226;-60
2023/05/29 05:53:32;;;;;;;;;;;;;;;16.40;51.02;100484.22;5058867;28;1210;-64
2023/05/29 05:55:57;;;;;;;;;;;;;;;16.46;50.52;100481.47;5059146;28;1198;-65
2023/05/29 05:58:24;;;;;;;;;;;;;;;17.06;52.18;100482.31;5059037;28;1347;-61
2023/05/29 06:00:52;;;;;;;;;;;;;;;16.68;51.06;100487.41;5061894;28;1105;-61
2023/05/29 06:03:18;;;;;;;;;;;;;;;17.14;51.85;100483.66;5055996;28;988;-60
2023/05/29 06:05:55;;;;;;;;;;;;;;;16.80;51.84;100480.78;5050453;28;1301;-62
2023/05/29 06:08:21;;;;;;;;;;;;;;;16.62;50.61;100483.06;5062930;28;1902;-62
2023/05/29 06:10:46;;;;;;;;;;;;;;;16.59;49.41;100476.22;5067267;28;1069;-62
2023/05/29 06:13:12;;;;;;;;;;;;;;;16.37;49.01;100476.56;5078878;28;1117;-63
2023/05/29 06:15:48;;;;;;;;;;;;;;;17.37;51.16;100476.59;5051258;28;1168;-63
2023/05/29 06:18:14;;;;;;;;;;;;;;;16.84;51.44;100487.34;5051632;28;1308;-64
2023/05/29 06:20:39;;;;;;;;;;;;;;;16.75;49.86;100474.22;5051951;28;1495;-63
2023/05/29 06:23:07;;;;;;;;;;;;;;;16.59;49.39;100475.38;5058195;28;1431;-63
2023/05/29 06:25:33;;;;;;;;;;;;;;;16.48;48.89;100476.50;5062720;28;1201;-63
2023/05/29 06:28:00;;;;;;;;;;;;;;;16.52;49.34;100488.56;5067192;28;1905;-63
2023/05/29 06:30:26;;;;;;;;;;;;;;;17.72;51.60;100487.59;5058446;28;1132;-62
2023/05/29 06:32:51;;;;;;;;;;;;;;;16.96;51.76;100493.38;5052004;28;1099;-63
2023/05/29 06:35:22;;;;;;;;;;;;;;;16.71;50.47;100480.56;5054378;28;1266;-66
2023/05/29 06:37:48;;;;;;;;;;;;;;;16.53;49.71;100474.56;5064022;28;1141;-65
2023/05/29 06:40:15;;;;;;;;;;;;;;;16.56;48.75;100464.97;5057811;28;1225;-62
2023/05/29 06:42:41;;;;;;;;;;;;;;;17.74;51.02;100468.88;5041737;28;1147;-66
2023/05/29 06:45:13;;;;;;;;;;;;;;;16.90;51.01;100467.00;5057646;28;1266;-65
2023/05/29 06:47:40;;;;;;;;;;;;;;;16.69;49.83;100464.34;5057696;28;1975;-61
2023/05/29 06:50:05;;;;;;;;;;;;;;;16.55;49.19;100455.06;5046167;28;1130;-57
2023/05/29 06:52:31;;;;;;;;;;;;;;;16.49;48.56;100464.44;5057430;28;1292;-64
2023/05/29 06:55:26;;;;;;;;;;;;;;;16.39;48.18;100476.28;5066384;28;1230;-59
2023/05/29 06:57:54;;;;;;;;;;;;;;;16.57;48.52;100472.91;5056109;28;1393;-61
2023/05/29 07:00:20;;;;;;;;;;;;;;;17.10;50.43;100477.06;5069761;28;1233;-60
2023/05/29 07:02:55;;;;;;;;;;;;;;;16.73;49.43;100483.81;5061545;28;1441;-60
2023/05/29 07:05:21;;;;;;;;;;;;;;;17.93;51.19;100480.03;5057016;28;1338;-63
2023/05/29 07:07:46;;;;;;;;;;;;;;;17.13;51.41;100482.00;5075798;28;1913;-60
2023/05/29 07:10:12;;;;;;;;;;;;;;;16.86;50.14;100482.41;5058181;28;1193;-60
2023/05/29 07:12:38;;;;;;;;;;;;;;;16.73;49.27;100476.44;5058983;28;1192;-66
2023/05/29 07:15:05;;;;;;;;;;;;;;;16.64;48.61;100486.34;5057881;28;1321;-65
2023/05/29 07:17:32;;;;;;;;;;;;;;;16.52;48.27;100485.84;5057639;28;1241;-57
2023/05/29 07:20:14;;;;;;;;;;;;;;;16.90;49.24;100494.47;5057717;28;1166;-58
2023/05/29 07:22:40;;;;;;;;;;;;;;;16.92;50.24;100489.53;5057783;28;1149;-59
2023/05/29 07:25:06;;;;;;;;;;;;;;;16.69;49.45;100510.19;5075413;28;1157;-61
2023/05/29 07:27:33;;;;;;;;;;;;;;;16.58;48.53;100520.41;5056597;28;1974;-60
2023/05/29 07:29:59;;;;;;;;;;;;;;;16.56;48.06;100531.69;5070070;28;1369;-60
2023/05/29 07:32:25;;;;;;;;;;;;;;;16.88;48.79;100537.84;5057871;28;1321;-62
2023/05/29 07:34:51;;;;;;;;;;;;;;;16.85;50.12;100541.19;5058039;28;1320;-62
2023/05/29 07:37:18;;;;;;;;;;;;;;;16.60;49.37;100545.66;5072211;28;1142;-62
2023/05/29 07:39:44;;;;;;;;;;;;;;;17.44;49.88;100551.31;5050135;28;1128;-61
2023/05/29 07:42:28;;;;;;;;;;;;;;;16.84;49.52;100545.81;5075556;28;996;-62
2023/05/29 07:44:54;;;;;;;;;;;;;;;16.62;48.82;100546.22;5076066;28;1158;-56
2023/05/29 07:47:20;;;;;;;;;;;;;;;16.46;48.33;100544.59;5057379;28;1989;-57
2023/05/29 07:49:46;;;;;;;;;;;;;;;16.47;47.47;100554.47;5047530;28;1305;-60
2023/05/29 07:52:13;;;;;;;;;;;;;;;16.42;47.16;100552.56;5050210;28;1387;-60
2023/05/29 07:54:38;;;;;;;;;;;;;;;17.14;48.50;100559.72;5057160;28;1257;-61
2023/05/29 07:57:09;;;;;;;;;;;;;;;16.90;49.91;100549.41;5054091;28;1262;-63
2023/05/29 07:59:37;;;;;;;;;;;;;;;16.58;49.07;100547.88;5045266;28;1234;-60
2023/05/29 08:02:04;;;;;;;;;;;;;;;16.55;47.99;100531.94;5065899;28;1516;-57
2023/05/29 08:05:02;;;;;;;;;;;;;;;17.21;50.09;100536.34;5035873;28;1386;-60
2023/05/29 08:07:28;;;;;;;;;;;;;;;16.85;49.67;100536.50;5059796;28;1981;-58
2023/05/29 08:09:54;;;;;;;;;;;;;;;16.68;48.57;100536.84;5078766;28;1093;-62
2023/05/29 08:12:20;;;;;;;;;;;;;;;16.49;48.31;100544.03;5053726;28;1602;-54
2023/05/29 08:14:47;;;;;;;;;;;;;;;16.80;48.91;100544.75;5055103;28;1217;-53
2023/05/29 08:17:14;;;;;;;;;;;;;;;17.28;49.73;100552.53;5048342;28;1266;-56
2023/05/29 08:19:39;;;;;;;;;;;;;;;16.80;49.38;100552.16;5078782;28;1097;-57
2023/05/29 08:22:05;;;;;;;;;;;;;;;16.73;48.25;100550.56;5078718;28;1103;-55
2023/05/29 08:24:31;;;;;;;;;;;;;;;16.70;47.53;100553.03;5078771;28;1125;-60
2023/05/29 08:26:56;;;;;;;;;;;;;;;17.32;49.37;100555.53;5089768;28;1085;-62
2023/05/29 08:29:22;;;;;;;;;;;;;;;16.78;49.21;100552.44;5078606;28;1901;-60
2023/05/29 08:31:47;;;;;;;;;;;;;;;16.67;48.58;100562.63;5078625;28;982;-63
2023/05/29 08:34:13;;;;;;;;;;;;;;;17.50;49.33;100557.63;5078095;28;1189;-65
2023/05/29 08:36:40;;;;;;;;;;;;;;;17.16;49.87;100557.53;5078231;28;1185;-64
2023/05/29 08:39:06;;;;;;;;;;;;;;;16.89;49.07;100548.59;5090441;28;1122;-64
2023/05/29 08:41:41;;;;;;;;;;;;;;;16.76;48.21;100549.19;5065169;28;1339;-64
2023/05/29 08:44:06;;;;;;;;;;;;;;;16.69;47.30;100554.97;5066219;28;1123;-64
2023/05/29 08:46:32;;;;;;;;;;;;;;;17.26;48.84;100549.22;5060195;28;1209;-64
2023/05/29 08:48:57;;;;;;;;;;;;;;;17.17;50.02;100554.50;5060689;28;1972;-64
2023/05/29 08:51:23;;;;;;;;;;;;;;;16.77;49.32;100548.91;5083390;28;929;-65
2023/05/29 08:53:48;;;;;;;;;;;;;;;16.72;48.41;100554.41;5060120;28;1135;-64
2023/05/29 08:56:14;;;;;;;;;;;;;;;16.86;48.42;100545.56;5077891;28;1217;-63
2023/05/29 08:58:40;;;;;;;;;;;;;;;17.19;49.52;100549.53;5078331;28;1126;-66
2023/05/29 09:01:05;;;;;;;;;;;;;;;16.87;48.96;100538.97;5077546;28;1066;-60
2023/05/29 09:03:31;;;;;;;;;;;;;;;16.96;49.35;100547.44;5071929;28;1093;-60
2023/05/29 09:06:00;;;;;;;;;;;;;;;17.22;49.76;100543.50;5077999;28;1364;-60
2023/05/29 09:08:26;;;;;;;;;;;;;;;16.83;49.14;100537.88;5078121;28;1979;-60
2023/05/29 09:10:51;;;;;;;;;;;;;;;16.86;47.83;100537.34;5075933;28;1117;-60
2023/05/29 09:13:17;;;;;;;;;;;;;;;16.63;47.51;100531.34;5066828;28;1166;-60
2023/05/29 09:15:42;;;;;;;;;;;;;;;16.64;46.88;100534.94;5082384;28;1144;-60
2023/05/29 09:18:08;;;;;;;;;;;;;;;17.63;49.21;100531.41;5078042;28;1097;-60
2023/05/29 09:20:34;;;;;;;;;;;;;;;16.97;49.54;100533.47;5077466;28;1145;-56
2023/05/29 09:23:04;;;;;;;;;;;;;;;16.89;48.34;100534.06;5077823;28;1146;-61
2023/05/29 09:25:31;;;;;;;;;;;;;;;16.65;48.03;100526.41;5088142;28;1117;-58
2023/05/29 09:28:04;;;;;;;;;;;;;;;16.58;47.58;100525.91;5073912;28;1961;-61
2023/05/29 09:30:34;;;;;;;;;;;;;;;16.59;47.04;100522.88;5076806;28;1190;-60
2023/05/29 09:33:00;;;;;;;;;;;;;;;17.52;48.65;100527.91;5069523;28;1332;-59
2023/05/29 09:35:27;;;;;;;;;;;;;;;16.99;49.50;100523.00;5077620;28;1206;-59
2023/05/29 09:37:52;;;;;;;;;;;;;;;16.73;48.69;100516.78;5081390;28;1250;-57
2023/05/29 09:40:18;;;;;;;;;;;;;;;16.68;47.76;100514.88;5062768;28;1241;-57
2023/05/29 09:42:43;;;;;;;;;;;;;;;16.45;47.86;100504.53;5057451;28;1328;-56
2023/05/29 09:45:09;;;;;;;;;;;;;;;16.51;47.26;100508.88;5062547;28;1242;-61
2023/05/29 09:47:35;;;;;;;;;;;;;;;17.08;49.03;100518.56;5076978;28;1898;-63
2023/05/29 09:50:00;;;;;;;;;;;;;;;16.79;48.42;100509.31;5081643;28;1293;-60
2023/05/29 09:52:26;;;;;;;;;;;;;;;16.57;47.78;100510.53;5072388;28;1296;-62
2023/05/29 09:54:52;;;;;;;;;;;;;;;16.56;47.38;100500.63;5039006;28;1596;-61
2023/05/29 09:57:18;;;;;;;;;;;;;;;16.62;47.25;100505.03;5039212;28;1239;-64
2023/05/29 09:59:44;;;;;;;;;;;;;;;17.61;49.11;100508.88;5057101;28;1361;-61
2023/05/29 10:02:12;;;;;;;;;;;;;;;16.93;49.12;100508.47;5066505;28;1374;-54
2023/05/29 10:04:39;;;;;;;;;;;;;;;16.82;48.25;100511.53;5039280;28;1254;-60
2023/05/29 10:07:08;;;;;;;;;;;;;;;16.68;47.73;100508.56;5056979;28;1218;-65
2023/05/29 10:09:34;;;;;;;;;;;;;;;16.56;47.47;100506.13;5052879;28;1977;-63
2023/05/29 10:12:02;;;;;;;;;;;;;;;16.58;46.77;100501.19;5059033;28;1062;-63
2023/05/29 10:14:27;;;;;;;;;;;;;;;16.48;46.69;100495.72;5081694;28;1058;-63
2023/05/29 10:16:53;;;;;;;;;;;;;;;16.49;46.50;100498.19;5058900;28;1090;-63
2023/05/29 10:19:22;;;;;;;;;;;;;;;16.40;46.45;100495.22;5058198;28;1038;-63
2023/05/29 10:21:47;;;;;;;;;;;;;;;17.45;48.53;100491.69;5058582;28;1158;-62
2023/05/29 10:24:13;;;;;;;;;;;;;;;16.86;48.53;100490.66;5058234;28;1078;-58
2023/05/29 10:26:39;;;;;;;;;;;;;;;18.00;49.39;100496.19;5065567;28;1249;-62
2023/05/29 10:29:10;;;;;;;;;;;;;;;17.67;50.45;100491.22;5069599;28;1901;-57
2023/05/29 10:31:54;;;;;;;;;;;;;;;17.12;49.85;100480.34;5075965;28;1071;-62
2023/05/29 10:34:30;;;;;;;;;;;;;;;16.95;48.93;100491.72;5069191;28;1094;-57
2023/05/29 10:37:16;;;;;;;;;;;;;;;16.87;47.98;100495.00;5086725;28;1621;-57
2023/05/29 10:39:41;;;;;;;;;;;;;;;17.45;49.32;100484.25;5066041;28;1701;-57
2023/05/29 10:42:26;;;;;;;;;;;;;;;17.21;49.10;100483.34;5075128;28;1066;-56
2023/05/29 10:44:51;;;;;;;;;;;;;;;16.95;48.62;100488.97;5071020;28;1149;-57
2023/05/29 10:47:23;;;;;;;;;;;;;;;16.77;47.92;100495.88;5081779;28;1235;-56
2023/05/29 10:49:49;;;;;;;;;;;;;;;17.49;48.95;100484.50;5096021;28;1976;-65
2023/05/29 10:52:15;;;;;;;;;;;;;;;17.02;49.06;100480.41;5088519;28;980;-62
2023/05/29 10:54:41;;;;;;;;;;;;;;;17.02;49.12;100481.22;5061504;28;1495;-61
2023/05/29 10:57:06;;;;;;;;;;;;;;;17.03;49.04;100479.31;5056142;28;1037;-61
2023/05/29 10:59:35;;;;;;;;;;;;;;;16.87;48.53;100484.03;5066996;28;1255;-63
2023/05/29 11:02:01;;;;;;;;;;;;;;;16.78;48.15;100492.03;5095693;28;1051;-63
2023/05/29 11:04:26;;;;;;;;;;;;;;;16.75;47.80;100487.94;5077428;28;1264;-65
2023/05/29 11:06:52;;;;;;;;;;;;;;;16.67;47.57;100495.94;5088946;28;921;-64
2023/05/29 11:09:31;;;;;;;;;;;;;;;16.59;47.32;100497.34;5081378;28;1964;-64
2023/05/29 11:12:16;;;;;;;;;;;;;;;17.09;48.32;100492.72;5076468;28;1178;-65
2023/05/29 11:14:47;;;;;;;;;;;;;;;17.02;49.43;100486.72;5080308;28;1062;-63
2023/05/29 11:17:32;;;;;;;;;;;;;;;16.77;48.75;100495.88;5069663;28;1106;-63
2023/05/29 11:19:59;;;;;;;;;;;;;;;16.71;48.02;100486.84;5065103;28;1019;-64
2023/05/29 11:22:26;;;;;;;;;;;;;;;16.69;47.32;100480.84;5056981;28;1352;-59
2023/05/29 11:24:53;;;;;;;;;;;;;;;16.54;47.23;100483.66;5058086;28;1043;-58
2023/05/29 11:27:18;;;;;;;;;;;;;;;17.64;48.83;100488.22;5066992;28;1086;-63
2023/05/29 11:29:44;;;;;;;;;;;;;;;17.00;49.21;100486.19;5062001;28;1905;-58
2023/05/29 11:32:11;;;;;;;;;;;;;;;16.80;48.43;100486.28;5079422;28;1023;-65
2023/05/29 11:34:38;;;;;;;;;;;;;;;16.77;47.76;100491.22;5061734;28;1252;-59
2023/05/29 11:37:04;;;;;;;;;;;;;;;16.67;47.28;100485.78;5066750;28;1122;-62
2023/05/29 11:39:30;;;;;;;;;;;;;;;16.63;47.04;100490.19;5089771;28;1039;-60
2023/05/29 11:41:56;;;;;;;;;;;;;;;16.53;46.93;100492.97;5082310;28;1062;-61
2023/05/29 11:44:25;;;;;;;;;;;;;;;16.47;46.74;100503.16;5079376;28;1102;-63
2023/05/29 11:47:01;;;;;;;;;;;;;;;17.13;47.74;100492.97;5079164;28;1255;-62
2023/05/29 11:49:27;;;;;;;;;;;;;;;17.05;48.96;100499.88;5079292;28;1973;-63
2023/05/29 11:51:53;;;;;;;;;;;;;;;16.81;48.36;100496.97;5079740;28;1319;-63
2023/05/29 11:54:19;;;;;;;;;;;;;;;16.71;47.89;100492.34;5054208;28;1138;-62
2023/05/29 11:56:45;;;;;;;;;;;;;;;16.56;47.40;100489.66;5079060;28;1149;-59
2023/05/29 11:59:10;;;;;;;;;;;;;;;16.52;47.24;100480.34;5061250;28;1167;-63
2023/05/29 12:01:36;;;;;;;;;;;;;;;17.48;48.61;100487.53;5079109;28;1096;-65
2023/05/29 12:04:02;;;;;;;;;;;;;;;17.04;49.36;100487.28;5079654;28;949;-63
2023/05/29 12:06:35;;;;;;;;;;;;;;;16.76;48.61;100475.84;5078795;28;1121;-64
2023/05/29 12:09:02;;;;;;;;;;;;;;;16.69;47.81;100471.75;5078755;28;2225;-61
2023/05/29 12:11:28;;;;;;;;;;;;;;;17.34;48.63;100466.19;5065642;28;1044;-64
2023/05/29 12:14:00;;;;;;;;;;;;;;;16.96;49.18;100473.28;5078597;28;1118;-62
2023/05/29 12:16:26;;;;;;;;;;;;;;;16.80;48.52;100465.09;5088223;28;1126;-64
2023/05/29 12:18:52;;;;;;;;;;;;;;;16.73;47.86;100467.34;5061024;28;963;-64
2023/05/29 12:21:17;;;;;;;;;;;;;;;17.71;49.03;100458.47;5060179;28;1241;-64
2023/05/29 12:23:43;;;;;;;;;;;;;;;17.05;49.08;100458.69;5070426;28;1070;-63
2023/05/29 12:26:08;;;;;;;;;;;;;;;16.86;48.52;100455.75;5060377;28;1058;-61
2023/05/29 12:28:34;;;;;;;;;;;;;;;16.83;48.12;100466.47;5090482;28;1985;-60
2023/05/29 12:31:00;;;;;;;;;;;;;;;16.68;47.80;100470.94;5078898;28;1116;-59
2023/05/29 12:33:29;;;;;;;;;;;;;;;16.74;47.45;100463.50;5078595;28;1209;-62
2023/05/29 12:36:00;;;;;;;;;;;;;;;17.14;49.00;100463.56;5065481;28;1134;-61
2023/05/29 12:38:27;;;;;;;;;;;;;;;16.87;48.34;100473.03;5077469;28;1101;-58
2023/05/29 12:40:53;;;;;;;;;;;;;;;16.73;47.63;100465.44;5088126;28;905;-60
2023/05/29 12:43:19;;;;;;;;;;;;;;;16.64;47.29;100463.56;5077728;28;1047;-63
2023/05/29 12:45:44;;;;;;;;;;;;;;;17.54;48.62;100458.88;5078339;28;1120;-59
2023/05/29 12:48:11;;;;;;;;;;;;;;;17.12;49.37;100450.13;5078144;28;1905;-57